KMSV/MSV METAR and TAF weather

Enter ICAO airport designator
Station Type Date Time Source
KMSV METAR 2018/12/19 02:56 UTC NOAA

KMSV 190256Z AUTO 31007G14KT 10SM CLR M08/M12 A3010 RMK AO2 SLP217 T10831117 53000 FZRANO


Station Type Date Time Source
KMSV Decoded METAR 2018/12/19 02:56 UTC NOAA

Monticello, Sullivan County International Airport, NY, United States (KMSV) 41-42N 074-48W
Dec 18, 2018 - 09:56 PM EST / 2018.12.19 0256 UTC
Wind: from the NW (310 degrees) at 8 MPH (7 KT) gusting to 16 MPH (14 KT):0
Visibility: 10 mile(s):0
Sky conditions: clear
Temperature: 17.1 F (-8.3 C)
Windchill: 6 F (-14 C):1
Dew Point: 10.9 F (-11.7 C)
Relative Humidity: 76%
Pressure (altimeter): 30.1 in. Hg (1019 hPa)
Pressure tendency: 0.00 inches (0.0 hPa) higher than three hours ago
ob: KMSV 190256Z AUTO 31007G14KT 10SM CLR M08/M12 A3010 RMK AO2 SLP217 T10831117 53000 FZRANO
cycle: 3

Station Type Date Time Source
KMSV TAF UTC NOAA

Error!


Example: see airport list